createdAt,value
2023-03-02T00:02:11.874Z,17.06
2023-03-02T00:05:14.487Z,17.05
2023-03-02T00:08:18.010Z,17.03
2023-03-02T00:11:21.355Z,17.01
2023-03-02T00:14:23.581Z,17.02
2023-03-02T00:17:28.429Z,17.00
2023-03-02T00:20:30.569Z,17.00
2023-03-02T00:23:32.689Z,16.98
2023-03-02T00:26:35.850Z,16.96
2023-03-02T00:29:38.058Z,16.94
2023-03-02T00:32:40.630Z,16.93
2023-03-02T00:35:42.814Z,16.92
2023-03-02T00:38:45.324Z,16.92
2023-03-02T00:41:48.324Z,16.91
2023-03-02T00:44:51.908Z,16.89
2023-03-02T00:47:53.993Z,16.88
2023-03-02T00:50:56.059Z,16.88
2023-03-02T00:54:02.693Z,16.84
2023-03-02T00:57:05.071Z,16.85
2023-03-02T01:00:07.799Z,16.82
2023-03-02T01:03:09.944Z,16.81
2023-03-02T01:06:17.985Z,16.80
2023-03-02T01:09:20.071Z,16.79
2023-03-02T01:12:22.207Z,16.78
2023-03-02T01:15:24.787Z,16.76
2023-03-02T01:18:26.917Z,16.75
2023-03-02T01:21:29.062Z,16.74
2023-03-02T01:24:32.198Z,16.72
2023-03-02T01:27:34.352Z,16.72
2023-03-02T01:30:36.495Z,16.70
2023-03-02T01:33:38.648Z,16.67
2023-03-02T01:36:41.035Z,16.69
2023-03-02T01:39:43.174Z,16.66
2023-03-02T01:42:55.900Z,16.65
2023-03-02T01:46:13.705Z,16.64
2023-03-02T01:49:16.434Z,16.62
2023-03-02T01:52:19.372Z,16.61
2023-03-02T01:55:25.914Z,16.61
2023-03-02T01:58:31.202Z,16.58
2023-03-02T02:01:35.158Z,16.57
2023-03-02T02:04:40.187Z,16.56
2023-03-02T02:07:42.691Z,16.55
2023-03-02T02:10:44.945Z,16.55
2023-03-02T02:13:47.685Z,16.52
2023-03-02T02:16:50.789Z,16.52
2023-03-02T02:20:07.520Z,16.51
2023-03-02T02:23:27.482Z,16.48
2023-03-02T02:26:50.975Z,16.47
2023-03-02T02:29:54.507Z,16.45
2023-03-02T02:32:57.261Z,16.44
2023-03-02T02:36:06.418Z,16.43
2023-03-02T02:39:15.182Z,16.43
2023-03-02T02:42:28.436Z,16.42
2023-03-02T02:45:30.656Z,16.41
2023-03-02T02:48:33.389Z,16.37
2023-03-02T02:51:35.647Z,16.36
2023-03-02T02:54:38.793Z,16.35
2023-03-02T02:57:41.193Z,16.34
2023-03-02T03:00:43.341Z,16.34
2023-03-02T03:04:01.226Z,16.32
2023-03-02T03:07:06.257Z,16.32
2023-03-02T03:10:20.484Z,16.30
2023-03-02T03:13:22.692Z,16.28
2023-03-02T03:16:29.025Z,16.28
2023-03-02T03:19:33.039Z,16.26
2023-03-02T03:22:37.291Z,16.24
2023-03-02T03:25:41.540Z,16.24
2023-03-02T03:28:44.132Z,16.21
2023-03-02T03:31:46.375Z,16.20
2023-03-02T03:34:48.674Z,16.19
2023-03-02T03:37:51.730Z,16.17
2023-03-02T03:40:53.889Z,16.17
2023-03-02T03:43:56.132Z,16.16
2023-03-02T03:46:58.399Z,16.15
2023-03-02T03:50:00.503Z,16.14
2023-03-02T03:53:03.903Z,16.13
2023-03-02T03:56:07.018Z,16.11
2023-03-02T03:59:18.706Z,16.11
2023-03-02T04:02:21.297Z,16.16
2023-03-02T04:05:23.583Z,16.18
2023-03-02T04:08:25.681Z,16.24
2023-03-02T04:11:27.940Z,16.24
2023-03-02T04:14:30.505Z,16.31
2023-03-02T04:17:32.618Z,16.37
2023-03-02T04:20:35.030Z,16.43
2023-03-02T04:23:37.129Z,16.52
2023-03-02T04:26:40.908Z,16.64
2023-03-02T04:29:43.944Z,16.75
2023-03-02T04:32:46.160Z,16.87
2023-03-02T04:35:48.337Z,16.92
2023-03-02T04:38:50.532Z,16.93
2023-03-02T04:41:53.478Z,17.01
2023-03-02T04:44:56.004Z,17.13
2023-03-02T04:47:58.376Z,17.21
2023-03-02T04:51:00.604Z,17.23
2023-03-02T04:54:06.290Z,17.24
2023-03-02T04:57:08.638Z,17.32
2023-03-02T05:00:12.823Z,17.44
2023-03-02T05:03:14.993Z,17.47
2023-03-02T05:06:17.365Z,17.49
2023-03-02T05:09:19.654Z,17.49
2023-03-02T05:12:21.818Z,17.46
2023-03-02T05:15:27.098Z,17.50
2023-03-02T05:18:29.470Z,17.59
2023-03-02T05:21:31.732Z,17.63
2023-03-02T05:24:33.934Z,17.65
2023-03-02T05:27:36.826Z,17.63
2023-03-02T05:30:38.977Z,17.60
2023-03-02T05:33:41.067Z,17.64
2023-03-02T05:36:45.134Z,17.72
2023-03-02T05:39:47.249Z,17.76
2023-03-02T05:42:50.626Z,17.76
2023-03-02T05:45:52.863Z,17.73
2023-03-02T05:48:55.110Z,17.70
2023-03-02T05:51:57.224Z,17.75
2023-03-02T05:54:59.597Z,17.80
2023-03-02T05:58:01.706Z,17.83
2023-03-02T06:01:10.141Z,17.82
2023-03-02T06:04:12.424Z,17.81
2023-03-02T06:07:14.629Z,17.82
2023-03-02T06:10:17.189Z,17.87
2023-03-02T06:13:19.387Z,17.89
2023-03-02T06:16:21.612Z,17.90
2023-03-02T06:19:23.950Z,17.85
2023-03-02T06:22:26.172Z,17.87
2023-03-02T06:25:28.432Z,17.91
2023-03-02T06:28:31.026Z,17.96
2023-03-02T06:31:33.452Z,17.99
2023-03-02T06:34:35.662Z,17.95
2023-03-02T06:37:37.950Z,17.94
2023-03-02T06:40:40.147Z,17.98
2023-03-02T06:43:42.545Z,18.05
2023-03-02T06:46:45.214Z,18.08
2023-03-02T06:49:47.399Z,18.08
2023-03-02T06:52:49.616Z,18.06
2023-03-02T06:55:52.400Z,18.05
2023-03-02T06:58:54.645Z,18.11
2023-03-02T07:01:56.764Z,18.15
2023-03-02T07:04:58.836Z,18.14
2023-03-02T07:08:01.057Z,18.14
2023-03-02T07:11:11.681Z,18.11
2023-03-02T07:14:13.784Z,18.07
2023-03-02T07:17:15.867Z,18.06
2023-03-02T07:20:19.262Z,18.05
2023-03-02T07:23:21.780Z,18.04
2023-03-02T07:26:24.008Z,18.05
2023-03-02T07:29:26.130Z,18.18
2023-03-02T07:32:28.584Z,18.28
2023-03-02T07:35:30.764Z,18.41
2023-03-02T07:38:33.330Z,18.43
2023-03-02T07:41:35.673Z,18.44
2023-03-02T07:44:38.112Z,18.49
2023-03-02T07:47:40.252Z,18.53
2023-03-02T07:50:42.385Z,18.59
2023-03-02T07:53:44.527Z,18.63
2023-03-02T07:56:46.632Z,18.66
2023-03-02T07:59:48.908Z,18.67
2023-03-02T08:02:51.390Z,18.72
2023-03-02T08:05:53.558Z,18.78
2023-03-02T08:08:55.710Z,18.87
2023-03-02T08:11:57.966Z,18.84
2023-03-02T08:15:00.103Z,18.86
2023-03-02T08:18:02.234Z,18.86
2023-03-02T08:21:05.431Z,18.98
2023-03-02T08:24:07.810Z,19.10
2023-03-02T08:27:13.957Z,19.12
2023-03-02T08:30:16.445Z,19.18
2023-03-02T08:33:18.580Z,19.20
2023-03-02T08:36:21.153Z,19.11
2023-03-02T08:39:23.727Z,19.22
2023-03-02T08:42:25.897Z,19.25
2023-03-02T08:45:28.153Z,19.24
2023-03-02T08:48:30.658Z,19.23
2023-03-02T08:51:33.201Z,19.22
2023-03-02T08:54:36.619Z,19.26
2023-03-02T08:57:38.992Z,19.36
2023-03-02T09:00:41.174Z,19.37
2023-03-02T09:03:43.394Z,19.31
2023-03-02T09:06:46.011Z,19.28
2023-03-02T09:09:48.162Z,19.27
2023-03-02T09:12:50.850Z,19.31
2023-03-02T09:15:52.951Z,19.35
2023-03-02T09:18:55.503Z,19.33
2023-03-02T09:21:57.633Z,19.31
2023-03-02T09:24:59.708Z,19.29
2023-03-02T09:28:01.891Z,19.29
2023-03-02T09:31:06.847Z,19.33
2023-03-02T09:34:09.041Z,19.38
2023-03-02T09:37:11.199Z,19.40
2023-03-02T09:40:22.690Z,19.40
2023-03-02T09:43:47.997Z,19.33
2023-03-02T09:47:11.849Z,19.31
2023-03-02T09:50:31.793Z,19.35
2023-03-02T09:53:57.501Z,19.35
2023-03-02T09:57:00.028Z,19.33
2023-03-02T10:00:19.914Z,19.33
2023-03-02T10:03:28.176Z,19.30
2023-03-02T10:06:30.680Z,19.27
2023-03-02T10:09:32.931Z,19.24
2023-03-02T10:12:41.233Z,19.23
2023-03-02T10:15:52.214Z,19.22
2023-03-02T10:19:08.761Z,19.18
2023-03-02T10:22:21.311Z,19.17
2023-03-02T10:25:48.683Z,19.14
2023-03-02T10:29:02.704Z,19.12
2023-03-02T10:32:21.439Z,19.08
2023-03-02T10:35:26.228Z,19.03
2023-03-02T10:38:29.573Z,19.01
2023-03-02T10:41:36.419Z,18.98
2023-03-02T10:44:41.519Z,18.96
2023-03-02T10:47:43.699Z,18.93
2023-03-02T10:50:52.861Z,18.91
2023-03-02T10:54:11.706Z,18.88
2023-03-02T10:57:39.614Z,18.83
2023-03-02T11:00:41.799Z,18.82
2023-03-02T11:03:54.261Z,18.80
2023-03-02T11:07:06.735Z,18.78
2023-03-02T11:10:23.577Z,18.77
2023-03-02T11:13:33.081Z,18.72
2023-03-02T11:16:35.202Z,18.71
2023-03-02T11:19:40.386Z,18.70
2023-03-02T11:22:53.059Z,18.70
2023-03-02T11:26:02.126Z,18.68
2023-03-02T11:29:11.909Z,18.67
2023-03-02T11:32:25.348Z,18.61
2023-03-02T11:35:48.095Z,18.57
2023-03-02T11:38:54.889Z,18.59
2023-03-02T11:41:57.005Z,18.59
2023-03-02T11:45:06.239Z,18.55
2023-03-02T11:48:09.773Z,18.50
2023-03-02T11:51:35.454Z,18.46
2023-03-02T11:55:12.854Z,18.43
2023-03-02T11:58:21.196Z,18.39
2023-03-02T12:01:26.308Z,18.15
2023-03-02T12:04:30.121Z,18.23
2023-03-02T12:07:32.660Z,18.26
2023-03-02T12:10:41.221Z,18.27
2023-03-02T12:13:45.118Z,18.27
2023-03-02T12:16:47.173Z,18.28
2023-03-02T12:19:51.620Z,18.28
2023-03-02T12:22:54.540Z,18.26
2023-03-02T12:26:20.020Z,18.24
2023-03-02T12:33:20.450Z,18.22
2023-03-02T12:36:32.444Z,18.20
2023-03-02T12:39:55.905Z,18.20
2023-03-02T12:43:16.229Z,18.23
2023-03-02T12:46:30.589Z,18.22
2023-03-02T12:49:51.204Z,18.22
2023-03-02T12:53:04.860Z,18.23
2023-03-02T12:56:08.772Z,18.25
2023-03-02T12:59:35.430Z,18.24
2023-03-02T13:02:44.592Z,18.23
2023-03-02T13:05:47.619Z,18.22
2023-03-02T13:09:05.876Z,18.21
2023-03-02T13:12:14.310Z,18.20
2023-03-02T13:15:17.484Z,18.20
2023-03-02T13:18:21.241Z,18.20
2023-03-02T13:21:35.498Z,18.24
2023-03-02T13:25:00.256Z,18.23
2023-03-02T13:28:07.782Z,18.23
2023-03-02T13:31:22.085Z,18.21
2023-03-02T13:34:30.939Z,18.22
2023-03-02T13:37:40.434Z,18.24
2023-03-02T13:40:46.023Z,18.23
2023-03-02T13:43:48.976Z,18.25
2023-03-02T13:46:51.073Z,18.27
2023-03-02T13:49:53.165Z,18.26
2023-03-02T13:53:06.876Z,18.27
2023-03-02T13:56:14.291Z,18.27
2023-03-02T13:59:19.145Z,18.26
2023-03-02T14:02:27.780Z,18.25
2023-03-02T14:05:32.964Z,18.26
2023-03-02T14:08:35.170Z,18.26
2023-03-02T14:11:42.622Z,18.24
2023-03-02T14:14:45.641Z,18.24
2023-03-02T14:17:49.155Z,18.23
2023-03-02T14:20:51.219Z,17.83
2023-03-02T14:23:54.127Z,16.54
2023-03-02T14:26:56.227Z,15.99
2023-03-02T14:29:58.765Z,16.02
2023-03-02T14:33:00.778Z,16.04
2023-03-02T14:36:04.258Z,15.98
2023-03-02T14:39:18.144Z,15.81
2023-03-02T14:42:21.292Z,15.71
2023-03-02T14:45:23.936Z,16.43
2023-03-02T14:48:25.922Z,17.52
2023-03-02T14:51:33.203Z,17.88
2023-03-02T14:54:48.102Z,18.02
2023-03-02T14:57:58.141Z,18.12
2023-03-02T15:01:00.676Z,18.22
2023-03-02T15:04:02.762Z,18.26
2023-03-02T15:07:04.905Z,18.30
2023-03-02T15:10:09.006Z,18.40
2023-03-02T15:13:11.828Z,18.43
2023-03-02T15:16:14.461Z,18.49
2023-03-02T15:19:16.718Z,18.50
2023-03-02T15:22:18.767Z,18.51
2023-03-02T15:25:21.203Z,18.50
2023-03-02T15:28:23.222Z,18.49
2023-03-02T15:31:27.435Z,18.48
2023-03-02T15:34:29.533Z,18.44
2023-03-02T15:37:31.553Z,18.43
2023-03-02T15:40:33.850Z,18.41
2023-03-02T15:43:35.936Z,18.39
2023-03-02T15:46:38.137Z,18.36
2023-03-02T15:49:40.435Z,18.36
2023-03-02T15:52:42.555Z,18.33
2023-03-02T15:55:44.744Z,18.33
2023-03-02T15:58:48.311Z,18.33
2023-03-02T16:01:50.659Z,18.32
2023-03-02T16:04:52.669Z,18.30
2023-03-02T16:07:54.705Z,18.32
2023-03-02T16:11:04.425Z,18.33
2023-03-02T16:14:06.462Z,18.30
2023-03-02T16:17:08.494Z,18.34
2023-03-02T16:20:11.393Z,18.34
2023-03-02T16:23:13.614Z,18.35
2023-03-02T16:26:19.254Z,18.34
2023-03-02T16:29:22.443Z,18.28
2023-03-02T16:32:24.761Z,18.32
2023-03-02T16:35:28.097Z,18.32
2023-03-02T16:38:30.505Z,18.30
2023-03-02T16:41:32.898Z,18.27
2023-03-02T16:44:34.960Z,18.28
2023-03-02T16:47:37.272Z,18.29
2023-03-02T16:50:39.828Z,18.28
2023-03-02T16:53:42.004Z,18.26
2023-03-02T16:56:47.105Z,18.25
2023-03-02T16:59:49.163Z,18.26
2023-03-02T17:02:51.787Z,18.25
2023-03-02T17:05:53.831Z,18.26
2023-03-02T17:08:55.857Z,18.22
2023-03-02T17:11:57.936Z,18.21
2023-03-02T17:15:00.041Z,18.19
2023-03-02T17:18:02.201Z,18.22
2023-03-02T17:21:05.355Z,18.18
2023-03-02T17:24:07.570Z,18.13
2023-03-02T17:27:23.821Z,18.10
2023-03-02T17:30:26.924Z,18.12
2023-03-02T17:33:29.657Z,18.11
2023-03-02T17:36:36.678Z,18.08
2023-03-02T17:39:39.047Z,18.08
2023-03-02T17:42:41.350Z,18.07
2023-03-02T17:45:43.427Z,18.05
2023-03-02T17:48:46.312Z,18.03
2023-03-02T17:51:48.328Z,18.04
2023-03-02T17:54:53.112Z,18.03
2023-03-02T17:57:56.026Z,17.99
2023-03-02T18:00:58.095Z,17.98
2023-03-02T18:04:00.364Z,17.94
2023-03-02T18:07:02.520Z,17.92
2023-03-02T18:10:05.608Z,17.92
2023-03-02T18:13:07.675Z,17.91
2023-03-02T18:16:10.208Z,17.89
2023-03-02T18:19:12.862Z,17.87
2023-03-02T18:22:15.197Z,17.87
2023-03-02T18:25:17.293Z,17.84
2023-03-02T18:28:19.939Z,17.84
2023-03-02T18:31:22.422Z,17.81
2023-03-02T18:34:24.489Z,17.80
2023-03-02T18:37:26.641Z,17.79
2023-03-02T18:40:28.724Z,17.79
2023-03-02T18:43:34.626Z,17.76
2023-03-02T18:46:36.837Z,17.74
2023-03-02T18:49:42.531Z,17.73
2023-03-02T18:52:44.618Z,17.73
2023-03-02T18:55:46.804Z,17.73
2023-03-02T18:58:49.703Z,17.70
2023-03-02T19:01:51.806Z,17.69
2023-03-02T19:04:53.871Z,17.67
2023-03-02T19:07:58.908Z,17.67
2023-03-02T19:11:01.209Z,17.65
2023-03-02T19:14:03.670Z,17.64
2023-03-02T19:17:05.838Z,17.62
2023-03-02T19:20:10.408Z,17.64
2023-03-02T19:23:12.539Z,17.64
2023-03-02T19:26:14.645Z,17.63
2023-03-02T19:29:16.778Z,17.65
2023-03-02T19:32:20.157Z,17.66
2023-03-02T19:35:24.524Z,17.63
2023-03-02T19:38:29.068Z,17.63
2023-03-02T19:41:31.480Z,17.63
2023-03-02T19:44:34.530Z,17.62
2023-03-02T19:47:36.573Z,17.62
2023-03-02T19:50:39.407Z,17.58
2023-03-02T19:53:42.149Z,17.56
2023-03-02T19:56:49.694Z,17.56
2023-03-02T19:59:52.204Z,17.54
2023-03-02T20:02:54.280Z,17.54
2023-03-02T20:05:58.819Z,17.53
2023-03-02T20:09:03.517Z,17.53
2023-03-02T20:12:07.802Z,17.52
2023-03-02T20:15:10.772Z,17.51
2023-03-02T20:18:16.577Z,17.49
2023-03-02T20:21:18.685Z,17.50
2023-03-02T20:24:20.793Z,17.48
2023-03-02T20:27:22.981Z,17.45
2023-03-02T20:30:37.281Z,17.46
2023-03-02T20:33:43.068Z,17.46
2023-03-02T20:36:45.497Z,17.44
2023-03-02T20:39:49.427Z,17.43
2023-03-02T20:42:51.661Z,17.43
2023-03-02T20:45:54.157Z,17.41
2023-03-02T20:48:56.686Z,17.39
2023-03-02T20:52:00.463Z,17.38
2023-03-02T20:55:03.222Z,17.37
2023-03-02T20:58:05.457Z,17.36
2023-03-02T21:01:08.268Z,17.36
2023-03-02T21:04:10.891Z,17.35
2023-03-02T21:07:13.646Z,17.35
2023-03-02T21:10:20.382Z,17.34
2023-03-02T21:13:22.482Z,17.34
2023-03-02T21:16:36.392Z,17.32
2023-03-02T21:19:38.491Z,17.33
2023-03-02T21:22:40.810Z,17.33
2023-03-02T21:25:44.711Z,17.32
2023-03-02T21:28:47.000Z,17.31
2023-03-02T21:31:50.101Z,17.30
2023-03-02T21:34:52.168Z,17.29
2023-03-02T21:37:57.854Z,17.28
2023-03-02T21:40:59.936Z,17.25
2023-03-02T21:44:05.336Z,17.25
2023-03-02T21:47:07.533Z,17.25
2023-03-02T21:50:22.350Z,17.24
2023-03-02T21:53:24.522Z,17.22
2023-03-02T21:56:27.928Z,17.22
2023-03-02T21:59:30.672Z,17.21
2023-03-02T22:02:33.193Z,17.21
2023-03-02T22:05:35.655Z,17.19
2023-03-02T22:08:39.177Z,17.19
2023-03-02T22:11:41.765Z,17.18
2023-03-02T22:14:43.816Z,17.17
2023-03-02T22:17:46.056Z,17.15
2023-03-02T22:20:50.421Z,17.14
2023-03-02T22:24:18.846Z,17.13
2023-03-02T22:27:25.172Z,17.10
2023-03-02T22:30:28.669Z,17.10
2023-03-02T22:33:33.567Z,17.07
2023-03-02T22:36:35.677Z,17.07
2023-03-02T22:39:39.411Z,17.07
2023-03-02T22:42:42.726Z,17.06
2023-03-02T22:45:44.990Z,17.06
2023-03-02T22:48:49.449Z,17.04
2023-03-02T22:51:51.583Z,17.03
2023-03-02T22:54:53.937Z,17.01
2023-03-02T22:57:56.134Z,16.99
2023-03-02T23:01:00.805Z,16.98
2023-03-02T23:04:08.676Z,16.98
2023-03-02T23:07:20.946Z,16.95
2023-03-02T23:10:23.294Z,16.94
2023-03-02T23:13:39.743Z,16.94
2023-03-02T23:16:41.916Z,16.91
2023-03-02T23:19:44.361Z,16.92
2023-03-02T23:22:46.438Z,16.90
2023-03-02T23:25:48.808Z,16.89
2023-03-02T23:28:51.321Z,16.88
2023-03-02T23:31:53.889Z,16.87
2023-03-02T23:34:56.338Z,16.85
2023-03-02T23:37:58.591Z,16.82
2023-03-02T23:41:00.612Z,16.82
2023-03-02T23:44:03.654Z,16.81
2023-03-02T23:47:05.733Z,16.79
2023-03-02T23:50:08.856Z,16.78
2023-03-02T23:53:11.905Z,16.76
2023-03-02T23:56:14.886Z,16.77
2023-03-02T23:59:17.059Z,16.75
